Old London, Texas
Current Conditions -  °F | °C
As of 5:15 PM on Thursday 20 Nov 2014 (Local Time) from KRFI Reporting Station
Scattered Clouds Scattered Clouds  
Wind Chill: 17°   Ceiling: Unl
Heat Index: 17°   Visibility: 10mi
Dew Point: 13°   Wind: 5mph
Humidity: 76%   Direction: 120°ESE
Pressure: 30.07"   Gusts: NA
Location:  32.2538°N, 94.9427°W
Report Text: KRFI 202315Z AUTO 12004KT 10SM SCT090 17/13 A3007 RMK AO2 T01720130
Loading
Personal Weather Stations






























Interactive Weather Map New forecast layout! Learn more

10-Day Weather Forecast

Advertisements
Track Severe Weather on mobile